Impacts TAF Board
For situational awareness. Not to be used for flight planning purposes.
IDs:

KHOU - Houston/Hobby Arpt, TX, US

Issued at 2332 UTC 05 Dec 2019
Updated at 0111 UTC 06 Dec 2019
Potential Impact None Slight Moderate High
Time0053Z 06/02Z 06/03Z 06/04Z 06/05Z 06/06Z 06/07Z 06/08Z 06/09Z 06/10Z 06/11Z 06/12Z 06/13Z 06/14Z>>
Type OBS PRVL PRVL PRVL PRVL PRVL PRVL PRVL PRVL PRVL PRVL PRVL PRVL PRVL
VIS 10 >6 >6 >6 >6 >6 >6 >6 4 4 4 4 4 >6
CIG 30 250 250 250 250 250 250 250 180 180 180 180 180 --
Cover BKN BKN BKN BKN BKN BKN BKN BKN BKN BKN BKN BKN BKN SCT
FltCat MVFR VFR VFR VFR VFR VFR VFR VFR MVFR MVFR MVFR MVFR MVFR VFR
WX -- -- -- -- -- -- -- -- BR BR BR BR BR --
WDir 130 150 150 150 150 150 150 150 VRB VRB VRB VRB VRB 280
WSpd 7 8 8 8 8 8 8 8 3 3 3 3 3 7
WGst -- -- -- -- -- -- -- -- -- -- -- -- -- --
Raw TAF
KHOU 052332Z 0600/0624 15008KT P6SM FEW040 BKN250
  FM060900 VRB03KT 4SM BR SCT007 BKN180
  FM061400 28007KT P6SM FEW008 SCT014
  FM061700 30011KT P6SM OVC250


Raw METAR
KHOU 060053Z COR 13007KT 10SM BKN030 BKN210 BKN250 19/14 A3000 RMK AO2 SLP164 T01940144
KHOU 052353Z 15006KT 10SM FEW032 SCT210 BKN250 20/14 A2999 RMK AO2 SLP160 T02000139 10244 20200 53002
KHOU 052253Z 15008KT 10SM FEW038 BKN250 22/14 A2998 RMK AO2 SLP157 T02170144

METAR Board
Radar Display
Forecast Discussion
For situational awareness. Not to be used for flight planning purposes.